createdAt,value
2022-11-05T00:02:20.588Z,1.70
2022-11-05T00:05:11.084Z,1.83
2022-11-05T00:08:01.160Z,1.77
2022-11-05T00:10:33.002Z,2.08
2022-11-05T00:13:23.156Z,1.88
2022-11-05T00:16:13.639Z,1.70
2022-11-05T00:18:45.116Z,1.77
2022-11-05T00:21:35.502Z,1.40
2022-11-05T00:24:26.219Z,1.50
2022-11-05T00:26:57.716Z,1.75
2022-11-05T00:29:29.814Z,1.60
2022-11-05T00:32:01.308Z,2.33
2022-11-05T00:34:33.150Z,1.60
2022-11-05T00:37:04.661Z,1.27
2022-11-05T00:39:36.483Z,1.50
2022-11-05T00:42:26.596Z,1.02
2022-11-05T00:45:01.317Z,1.73
2022-11-05T00:47:51.663Z,1.60
2022-11-05T00:50:23.578Z,1.75
2022-11-05T00:52:59.426Z,1.63
2022-11-05T00:55:31.554Z,1.15
2022-11-05T00:58:03.084Z,1.33
2022-11-05T01:00:35.056Z,2.08
2022-11-05T01:03:06.604Z,1.27
2022-11-05T01:05:38.416Z,1.20
2022-11-05T01:08:09.974Z,1.48
2022-11-05T01:10:41.852Z,1.17
2022-11-05T01:13:13.634Z,1.52
2022-11-05T01:15:45.569Z,1.10
2022-11-05T01:18:17.060Z,0.90
2022-11-05T01:20:48.892Z,1.30
2022-11-05T01:23:20.934Z,0.98
2022-11-05T01:25:53.296Z,1.65
2022-11-05T01:28:24.855Z,1.50
2022-11-05T01:30:56.832Z,1.20
2022-11-05T01:33:28.345Z,1.05
2022-11-05T01:35:59.909Z,1.10
2022-11-05T01:38:31.710Z,1.27
2022-11-05T01:41:03.200Z,1.35
2022-11-05T01:43:35.050Z,1.00
2022-11-05T01:46:06.566Z,1.42
2022-11-05T01:48:38.404Z,1.80
2022-11-05T01:51:09.913Z,1.10
2022-11-05T01:53:41.738Z,1.45
2022-11-05T01:56:13.238Z,1.20
2022-11-05T01:58:45.078Z,1.02
2022-11-05T02:01:16.633Z,1.38
2022-11-05T02:03:48.532Z,1.77
2022-11-05T02:06:20.045Z,1.75
2022-11-05T02:08:52.029Z,2.05
2022-11-05T02:11:23.535Z,1.67
2022-11-05T02:13:55.406Z,1.40
2022-11-05T02:16:26.891Z,1.50
2022-11-05T02:18:58.812Z,1.88
2022-11-05T02:21:30.294Z,2.17
2022-11-05T02:24:02.082Z,1.42
2022-11-05T02:26:33.603Z,1.90
2022-11-05T02:29:05.534Z,2.05
2022-11-05T02:31:37.033Z,1.17
2022-11-05T02:34:08.873Z,1.75
2022-11-05T02:36:40.469Z,1.30
2022-11-05T02:39:12.639Z,2.00
2022-11-05T02:41:44.121Z,2.05
2022-11-05T02:44:15.965Z,1.52
2022-11-05T02:46:47.602Z,1.42
2022-11-05T02:49:19.458Z,1.67
2022-11-05T02:51:51.027Z,1.85
2022-11-05T02:54:22.787Z,1.20
2022-11-05T02:56:54.389Z,1.40
2022-11-05T02:59:26.275Z,1.73
2022-11-05T03:01:57.979Z,1.92
2022-11-05T03:04:29.955Z,1.67
2022-11-05T03:07:01.502Z,1.58
2022-11-05T03:09:33.413Z,1.25
2022-11-05T03:12:05.238Z,1.08
2022-11-05T03:14:37.072Z,1.38
2022-11-05T03:17:08.567Z,1.88
2022-11-05T03:19:40.511Z,1.77
2022-11-05T03:22:12.017Z,1.63
2022-11-05T03:24:43.977Z,1.60
2022-11-05T03:27:15.471Z,1.63
2022-11-05T03:29:46.984Z,1.95
2022-11-05T03:32:18.586Z,1.52
2022-11-05T03:34:50.432Z,1.85
2022-11-05T03:37:21.938Z,1.23
2022-11-05T03:39:53.889Z,1.13
2022-11-05T03:42:25.831Z,1.50
2022-11-05T03:44:57.667Z,0.97
2022-11-05T03:47:29.147Z,1.20
2022-11-05T03:50:01.023Z,1.15
2022-11-05T03:52:32.529Z,1.60
2022-11-05T03:55:04.093Z,1.13
2022-11-05T03:57:35.641Z,1.10
2022-11-05T04:00:07.494Z,1.80
2022-11-05T04:02:39.436Z,1.15
2022-11-05T04:05:11.114Z,1.83
2022-11-05T04:08:01.741Z,1.40
2022-11-05T04:11:05.341Z,1.73
2022-11-05T04:16:27.264Z,0.95
2022-11-05T04:18:59.091Z,1.23
2022-11-05T04:21:49.234Z,1.70
2022-11-05T04:24:21.074Z,0.95
2022-11-05T04:26:52.603Z,1.30
2022-11-05T04:29:42.973Z,1.55
2022-11-05T04:32:14.474Z,1.60
2022-11-05T04:34:46.412Z,1.38
2022-11-05T04:37:17.984Z,1.15
2022-11-05T04:39:49.847Z,1.08
2022-11-05T04:42:21.437Z,1.70
2022-11-05T04:44:53.318Z,0.95
2022-11-05T04:47:24.861Z,1.80
2022-11-05T04:49:56.803Z,1.67
2022-11-05T04:52:28.296Z,1.40
2022-11-05T04:55:01.147Z,1.60
2022-11-05T04:57:32.700Z,1.52
2022-11-05T05:00:04.583Z,1.33
2022-11-05T05:02:36.123Z,1.50
2022-11-05T05:05:07.996Z,1.23
2022-11-05T05:07:39.560Z,0.95
2022-11-05T05:10:11.426Z,1.00
2022-11-05T05:12:42.997Z,1.40
2022-11-05T05:15:14.821Z,2.00
2022-11-05T05:17:46.307Z,1.60
2022-11-05T05:20:36.951Z,1.02
2022-11-05T05:23:09.121Z,1.65
2022-11-05T05:25:40.829Z,1.40
2022-11-05T05:28:12.699Z,1.10
2022-11-05T05:30:44.188Z,1.38
2022-11-05T05:33:16.018Z,1.02
2022-11-05T05:35:47.570Z,1.10
2022-11-05T05:38:19.461Z,1.23
2022-11-05T05:40:50.961Z,1.38
2022-11-05T05:43:22.770Z,1.40
2022-11-05T05:45:54.344Z,1.65
2022-11-05T05:48:25.855Z,1.17
2022-11-05T05:50:57.391Z,1.48
2022-11-05T05:53:29.285Z,0.90
2022-11-05T05:56:00.830Z,0.80
2022-11-05T05:58:32.616Z,1.25
2022-11-05T06:01:04.167Z,1.52
2022-11-05T06:03:36.125Z,1.00
2022-11-05T06:06:07.671Z,1.70
2022-11-05T06:08:39.214Z,1.05
2022-11-05T06:11:10.825Z,1.10
2022-11-05T06:13:42.723Z,0.93
2022-11-05T06:16:14.240Z,1.15
2022-11-05T06:18:46.045Z,1.08
2022-11-05T06:21:17.561Z,0.85
2022-11-05T06:23:50.130Z,1.35
2022-11-05T06:26:21.653Z,1.30
2022-11-05T06:28:53.483Z,1.63
2022-11-05T06:31:24.996Z,1.42
2022-11-05T06:33:56.826Z,1.35
2022-11-05T06:36:28.324Z,1.67
2022-11-05T06:38:59.853Z,1.15
2022-11-05T06:41:31.350Z,1.05
2022-11-05T06:44:03.376Z,1.13
2022-11-05T06:46:34.874Z,1.33
2022-11-05T06:49:06.888Z,1.25
2022-11-05T06:51:38.374Z,1.30
2022-11-05T06:54:10.202Z,1.17
2022-11-05T06:56:41.710Z,1.00
2022-11-05T06:59:13.692Z,1.20
2022-11-05T07:01:45.303Z,1.50
2022-11-05T07:04:17.270Z,1.20
2022-11-05T07:06:48.766Z,1.27
2022-11-05T07:09:20.568Z,1.60
2022-11-05T07:11:52.115Z,1.08
2022-11-05T07:14:23.979Z,0.85
2022-11-05T07:16:55.478Z,1.35
2022-11-05T07:19:27.345Z,0.90
2022-11-05T07:21:58.911Z,1.27
2022-11-05T07:24:30.762Z,1.60
2022-11-05T07:27:02.611Z,1.02
2022-11-05T07:29:34.143Z,0.93
2022-11-05T07:32:05.987Z,1.27
2022-11-05T07:34:37.513Z,1.30
2022-11-05T07:37:09.509Z,2.05
2022-11-05T07:39:41.020Z,0.87
2022-11-05T07:42:12.947Z,1.75
2022-11-05T07:44:44.440Z,1.25
2022-11-05T07:47:16.269Z,1.45
2022-11-05T07:49:47.778Z,1.45
2022-11-05T07:52:19.624Z,1.60
2022-11-05T07:54:51.118Z,1.27
2022-11-05T07:57:23.167Z,1.63
2022-11-05T07:59:54.698Z,1.30
2022-11-05T08:02:26.431Z,1.00
2022-11-05T08:04:58.056Z,1.60
2022-11-05T08:07:29.625Z,0.85
2022-11-05T08:10:03.525Z,1.08
2022-11-05T08:12:35.373Z,1.50
2022-11-05T08:15:06.867Z,1.17
2022-11-05T08:17:38.879Z,1.67
2022-11-05T08:20:10.377Z,1.50
2022-11-05T08:22:42.188Z,1.40
2022-11-05T08:25:13.681Z,1.17
2022-11-05T08:27:46.116Z,0.95
2022-11-05T08:30:17.640Z,1.25
2022-11-05T08:32:49.507Z,1.58
2022-11-05T08:35:21.027Z,0.80
2022-11-05T08:37:52.892Z,1.35
2022-11-05T08:40:24.519Z,1.35
2022-11-05T08:42:56.431Z,0.80
2022-11-05T08:45:28.061Z,1.30
2022-11-05T08:48:00.245Z,1.52
2022-11-05T08:50:31.839Z,1.27
2022-11-05T08:53:03.370Z,1.33
2022-11-05T08:55:34.873Z,1.08
2022-11-05T08:58:06.512Z,1.45
2022-11-05T09:00:38.087Z,1.35
2022-11-05T09:03:10.307Z,1.30
2022-11-05T09:05:42.893Z,0.98
2022-11-05T09:08:14.455Z,1.13
2022-11-05T09:10:46.010Z,1.25
2022-11-05T09:13:19.695Z,1.00
2022-11-05T09:15:51.487Z,1.10
2022-11-05T09:18:23.410Z,0.80
2022-11-05T09:20:55.254Z,1.00
2022-11-05T09:23:26.765Z,0.70
2022-11-05T09:25:58.661Z,0.98
2022-11-05T09:28:31.711Z,0.88
2022-11-05T09:31:03.643Z,1.20
2022-11-05T09:33:35.160Z,1.10
2022-11-05T09:36:07.066Z,0.60
2022-11-05T09:38:38.589Z,1.20
2022-11-05T09:41:10.444Z,0.75
2022-11-05T09:43:41.976Z,0.88
2022-11-05T09:46:13.966Z,0.82
2022-11-05T09:48:45.455Z,1.13
2022-11-05T09:51:23.490Z,0.88
2022-11-05T09:53:56.365Z,0.80
2022-11-05T09:56:28.314Z,0.70
2022-11-05T09:58:59.915Z,0.70
2022-11-05T10:01:32.288Z,0.80
2022-11-05T10:04:03.935Z,0.68
2022-11-05T10:06:35.851Z,1.10
2022-11-05T10:09:07.417Z,1.02
2022-11-05T10:11:39.444Z,0.68
2022-11-05T10:14:10.959Z,0.90
2022-11-05T10:16:42.789Z,0.98
2022-11-05T10:19:14.303Z,0.68
2022-11-05T10:22:05.702Z,0.50
2022-11-05T10:24:37.633Z,1.00
2022-11-05T10:27:09.633Z,0.88
2022-11-05T10:29:41.135Z,0.43
2022-11-05T10:32:12.954Z,0.45
2022-11-05T10:34:44.454Z,0.68
2022-11-05T10:37:16.282Z,0.65
2022-11-05T10:39:47.800Z,0.50
2022-11-05T10:42:19.659Z,0.70
2022-11-05T10:44:51.147Z,0.40
2022-11-05T10:47:22.968Z,0.80
2022-11-05T10:49:54.441Z,0.52
2022-11-05T10:52:26.263Z,0.50
2022-11-05T10:54:57.750Z,0.90
2022-11-05T10:57:29.594Z,0.47
2022-11-05T11:00:01.065Z,0.73
2022-11-05T11:02:34.299Z,0.50
2022-11-05T11:05:05.831Z,0.75
2022-11-05T11:07:37.641Z,0.82
2022-11-05T11:10:09.174Z,0.90
2022-11-05T11:12:41.322Z,1.13
2022-11-05T11:15:12.861Z,0.52
2022-11-05T11:17:44.690Z,0.70
2022-11-05T11:20:16.222Z,0.63
2022-11-05T11:22:48.044Z,0.65
2022-11-05T11:25:19.537Z,0.30
2022-11-05T11:27:51.397Z,0.50
2022-11-05T11:30:22.900Z,0.30
2022-11-05T11:32:54.733Z,0.60
2022-11-05T11:35:26.979Z,0.98
2022-11-05T11:38:00.811Z,0.73
2022-11-05T11:40:32.767Z,0.50
2022-11-05T11:43:04.295Z,0.22
2022-11-05T11:45:36.144Z,1.00
2022-11-05T11:48:07.738Z,0.63
2022-11-05T11:50:39.739Z,0.50
2022-11-05T11:53:11.505Z,0.47
2022-11-05T11:55:43.483Z,0.80
2022-11-05T11:58:14.984Z,0.40
2022-11-05T12:00:46.802Z,0.40
2022-11-05T12:03:18.715Z,0.45
2022-11-05T12:05:50.780Z,0.40
2022-11-05T12:08:22.288Z,0.60
2022-11-05T12:10:54.391Z,0.30
2022-11-05T12:13:25.930Z,0.27
2022-11-05T12:15:57.890Z,0.68
2022-11-05T12:18:29.384Z,0.60
2022-11-05T12:21:01.328Z,0.22
2022-11-05T12:23:32.831Z,0.20
2022-11-05T12:26:04.623Z,0.60
2022-11-05T12:28:36.357Z,0.60
2022-11-05T12:31:08.267Z,0.65
2022-11-05T12:33:39.781Z,0.35
2022-11-05T12:36:11.669Z,0.70
2022-11-05T12:38:43.156Z,0.30
2022-11-05T12:41:15.144Z,0.43
2022-11-05T12:43:46.649Z,0.47
2022-11-05T12:46:18.488Z,0.50
2022-11-05T12:48:49.998Z,0.50
2022-11-05T12:51:22.048Z,0.40
2022-11-05T12:53:53.555Z,0.43
2022-11-05T12:56:25.452Z,0.50
2022-11-05T12:58:56.958Z,0.30
2022-11-05T13:01:29.001Z,0.40
2022-11-05T13:04:00.905Z,0.40
2022-11-05T13:06:32.690Z,0.50
2022-11-05T13:09:04.348Z,0.30
2022-11-05T13:11:36.259Z,0.43
2022-11-05T13:14:07.758Z,0.38
2022-11-05T13:16:39.722Z,0.40
2022-11-05T13:19:11.214Z,0.47
2022-11-05T13:21:43.046Z,0.30
2022-11-05T13:24:14.550Z,0.25
2022-11-05T13:26:46.341Z,0.50
2022-11-05T13:29:17.903Z,0.52
2022-11-05T13:31:49.771Z,0.63
2022-11-05T13:34:21.246Z,0.85
2022-11-05T13:37:11.628Z,0.43
2022-11-05T13:39:43.115Z,0.40
2022-11-05T13:42:14.887Z,0.52
2022-11-05T13:44:46.387Z,0.60
2022-11-05T13:47:18.244Z,0.30
2022-11-05T13:49:49.806Z,0.35
2022-11-05T13:52:21.709Z,0.30
2022-11-05T13:54:53.189Z,0.38
2022-11-05T13:57:25.137Z,0.25
2022-11-05T13:59:56.657Z,0.50
2022-11-05T14:02:28.596Z,0.70
2022-11-05T14:05:01.644Z,0.50
2022-11-05T14:07:33.769Z,0.55
2022-11-05T14:10:05.295Z,0.47
2022-11-05T14:12:37.173Z,0.50
2022-11-05T14:15:09.387Z,1.02
2022-11-05T14:17:41.259Z,0.40
2022-11-05T14:20:12.769Z,0.60
2022-11-05T14:22:44.651Z,0.60
2022-11-05T14:25:16.152Z,1.00
2022-11-05T14:27:48.116Z,0.55
2022-11-05T14:30:19.606Z,0.50
2022-11-05T14:32:53.397Z,0.88
2022-11-05T14:35:25.250Z,0.55
2022-11-05T14:37:56.741Z,0.50
2022-11-05T14:40:28.706Z,0.38
2022-11-05T14:43:00.259Z,0.75
2022-11-05T14:45:32.381Z,0.85
2022-11-05T14:48:03.913Z,0.50
2022-11-05T14:50:35.793Z,0.65
2022-11-05T14:53:07.278Z,0.60
2022-11-05T14:55:39.321Z,0.57
2022-11-05T14:58:10.792Z,0.53
2022-11-05T15:00:42.720Z,0.70
2022-11-05T15:03:14.394Z,0.65
2022-11-05T15:05:46.417Z,0.90
2022-11-05T15:08:17.908Z,0.70
2022-11-05T15:10:49.814Z,0.68
2022-11-05T15:13:21.301Z,0.73
2022-11-05T15:15:53.252Z,0.73
2022-11-05T15:18:24.776Z,0.57
2022-11-05T15:20:56.602Z,1.13
2022-11-05T15:23:28.111Z,0.85
2022-11-05T15:25:59.922Z,0.50
2022-11-05T15:28:31.468Z,0.43
2022-11-05T15:31:03.496Z,0.80
2022-11-05T15:33:35.040Z,0.70
2022-11-05T15:36:06.862Z,0.70
2022-11-05T15:38:38.489Z,0.80
2022-11-05T15:41:10.460Z,0.57
2022-11-05T15:43:47.533Z,1.65
2022-11-05T15:46:23.422Z,0.80
2022-11-05T15:48:54.896Z,0.60
2022-11-05T15:51:27.062Z,0.47
2022-11-05T15:56:50.584Z,0.52
2022-11-05T15:59:22.100Z,0.93
2022-11-05T16:01:54.094Z,0.85
2022-11-05T16:04:25.655Z,1.30
2022-11-05T16:06:57.478Z,1.30
2022-11-05T16:09:29.019Z,1.10
2022-11-05T16:12:00.848Z,1.45
2022-11-05T16:14:32.374Z,1.17
2022-11-05T16:17:04.179Z,1.33
2022-11-05T16:19:40.203Z,0.90
2022-11-05T16:22:12.554Z,1.10
2022-11-05T16:24:44.241Z,0.70
2022-11-05T16:27:19.412Z,0.82
2022-11-05T16:29:51.461Z,0.85
2022-11-05T16:32:28.579Z,1.08
2022-11-05T16:35:01.625Z,0.77
2022-11-05T16:37:33.447Z,1.65
2022-11-05T16:40:04.924Z,1.13
2022-11-05T16:42:36.827Z,1.25
2022-11-05T16:45:08.408Z,0.80
2022-11-05T16:47:40.226Z,0.65
2022-11-05T16:50:11.706Z,0.90
2022-11-05T16:52:43.694Z,0.80
2022-11-05T16:55:15.172Z,1.47
2022-11-05T16:57:47.171Z,1.73
2022-11-05T17:00:18.710Z,1.60
2022-11-05T17:02:50.683Z,1.00
2022-11-05T17:05:22.324Z,2.20
2022-11-05T17:07:53.851Z,1.50
2022-11-05T17:10:25.402Z,1.77
2022-11-05T17:12:57.263Z,1.17
2022-11-05T17:15:29.514Z,1.63
2022-11-05T17:18:01.374Z,2.20
2022-11-05T17:20:39.590Z,2.38
2022-11-05T17:23:12.484Z,2.17
2022-11-05T17:25:44.501Z,1.73
2022-11-05T17:28:16.646Z,1.88
2022-11-05T17:30:54.893Z,2.08
2022-11-05T17:33:26.431Z,1.60
2022-11-05T17:35:58.288Z,2.25
2022-11-05T17:38:29.829Z,2.58
2022-11-05T17:41:01.880Z,1.90
2022-11-05T17:43:33.430Z,2.40
2022-11-05T17:46:05.439Z,1.90
2022-11-05T17:48:36.947Z,1.50
2022-11-05T17:51:08.751Z,1.63
2022-11-05T17:53:40.289Z,1.52
2022-11-05T17:56:11.821Z,1.45
2022-11-05T17:58:43.343Z,2.20
2022-11-05T18:01:14.951Z,1.73
2022-11-05T18:03:46.687Z,1.80
2022-11-05T18:06:18.886Z,1.70
2022-11-05T18:08:50.634Z,1.00
2022-11-05T18:11:22.843Z,1.73
2022-11-05T18:13:54.606Z,2.70
2022-11-05T18:16:26.835Z,1.73
2022-11-05T18:18:58.363Z,1.23
2022-11-05T18:21:29.945Z,1.80
2022-11-05T18:24:01.455Z,1.35
2022-11-05T18:26:33.313Z,1.60
2022-11-05T18:29:04.802Z,1.65
2022-11-05T18:31:36.835Z,1.63
2022-11-05T18:34:10.341Z,1.43
2022-11-05T18:36:41.860Z,2.00
2022-11-05T18:39:13.389Z,1.23
2022-11-05T18:41:44.965Z,2.03
2022-11-05T18:44:16.784Z,1.77
2022-11-05T18:46:58.099Z,2.40
2022-11-05T18:49:30.315Z,1.70
2022-11-05T18:52:01.854Z,1.95
2022-11-05T18:54:33.348Z,1.33
2022-11-05T18:57:04.969Z,1.23
2022-11-05T18:59:39.230Z,1.83
2022-11-05T19:02:11.571Z,1.48
2022-11-05T19:05:00.724Z,1.97
2022-11-05T19:10:08.872Z,1.73
2022-11-05T19:12:40.356Z,1.73
2022-11-05T19:15:11.853Z,2.03
2022-11-05T19:17:43.349Z,2.00
2022-11-05T19:20:15.296Z,1.52
2022-11-05T19:22:46.858Z,1.17
2022-11-05T19:25:18.404Z,1.10
2022-11-05T19:27:50.010Z,1.40
2022-11-05T19:30:21.865Z,1.55
2022-11-05T19:32:53.347Z,2.38
2022-11-05T19:35:25.187Z,1.80
2022-11-05T19:37:56.742Z,1.63
2022-11-05T19:40:28.294Z,2.63
2022-11-05T19:42:59.793Z,1.60
2022-11-05T19:45:44.806Z,2.40
2022-11-05T19:48:19.678Z,1.67
2022-11-05T19:50:51.609Z,1.23
2022-11-05T19:53:23.101Z,1.65
2022-11-05T19:55:54.934Z,1.85
2022-11-05T19:58:26.449Z,1.27
2022-11-05T20:00:57.968Z,1.85
2022-11-05T20:03:29.580Z,1.58
2022-11-05T20:06:01.254Z,1.33
2022-11-05T20:08:32.782Z,1.20
2022-11-05T20:11:04.298Z,2.13
2022-11-05T20:13:35.821Z,1.67
2022-11-05T20:16:07.627Z,1.75
2022-11-05T20:18:39.141Z,1.50
2022-11-05T20:21:11.786Z,1.88
2022-11-05T20:23:43.286Z,2.03
2022-11-05T20:26:15.013Z,1.70
2022-11-05T20:28:46.526Z,1.98
2022-11-05T20:31:18.144Z,1.88
2022-11-05T20:33:49.728Z,1.65
2022-11-05T20:36:22.178Z,1.10
2022-11-05T20:38:55.137Z,1.38
2022-11-05T20:41:26.775Z,1.52
2022-11-05T20:49:04.635Z,0.93
2022-11-05T20:51:36.135Z,1.23
2022-11-05T20:54:07.857Z,0.98
2022-11-05T20:56:39.583Z,1.63
2022-11-05T20:59:11.072Z,1.30
2022-11-05T21:01:42.732Z,1.77
2022-11-05T21:04:14.370Z,1.40
2022-11-05T21:06:46.377Z,0.90
2022-11-05T21:09:17.887Z,1.50
2022-11-05T21:12:08.756Z,0.80
2022-11-05T21:14:40.273Z,1.33
2022-11-05T21:17:12.307Z,1.60
2022-11-05T21:19:43.847Z,1.53
2022-11-05T21:22:15.966Z,1.77
2022-11-05T21:24:48.400Z,1.15
2022-11-05T21:27:19.889Z,1.63
2022-11-05T21:29:51.705Z,1.00
2022-11-05T21:32:23.193Z,1.52
2022-11-05T21:34:55.164Z,1.30
2022-11-05T21:37:26.710Z,1.30
2022-11-05T21:39:58.240Z,1.25
2022-11-05T21:42:29.742Z,1.17
2022-11-05T21:45:01.257Z,1.17
2022-11-05T21:47:32.910Z,0.73
2022-11-05T21:50:04.433Z,0.90
2022-11-05T21:52:54.826Z,1.25
2022-11-05T21:55:45.262Z,1.02
2022-11-05T21:58:35.375Z,1.23
2022-11-05T22:01:07.222Z,1.02
2022-11-05T22:03:38.741Z,0.95
2022-11-05T22:06:10.747Z,1.20
2022-11-05T22:08:42.251Z,1.20
2022-11-05T22:11:14.053Z,1.15
2022-11-05T22:13:45.565Z,1.00
2022-11-05T22:16:17.095Z,1.10
2022-11-05T22:18:48.664Z,1.00
2022-11-05T22:21:20.473Z,1.65
2022-11-05T22:23:52.008Z,1.48
2022-11-05T22:26:23.857Z,1.60
2022-11-05T22:28:55.378Z,0.93
2022-11-05T22:31:29.518Z,1.83
2022-11-05T22:34:04.743Z,0.98
2022-11-05T22:36:36.600Z,1.10
2022-11-05T22:39:08.178Z,0.70
2022-11-05T22:41:40.265Z,1.30
2022-11-05T22:44:14.043Z,0.80
2022-11-05T22:46:45.531Z,1.10
2022-11-05T22:49:17.447Z,1.83
2022-11-05T22:51:48.944Z,1.60
2022-11-05T22:54:20.821Z,1.40
2022-11-05T22:56:53.731Z,1.40
2022-11-05T22:59:25.279Z,0.77
2022-11-05T23:01:56.947Z,1.20
2022-11-05T23:04:28.905Z,0.88
2022-11-05T23:07:23.131Z,1.23
2022-11-05T23:10:16.398Z,1.65
2022-11-05T23:12:47.876Z,1.35
2022-11-05T23:15:38.263Z,1.17
2022-11-05T23:18:28.692Z,1.23
2022-11-05T23:21:22.816Z,1.55
2022-11-05T23:24:07.110Z,1.15
2022-11-05T23:26:50.915Z,1.52
2022-11-05T23:29:22.735Z,0.60
2022-11-05T23:32:13.084Z,0.82
2022-11-05T23:34:44.895Z,1.27
2022-11-05T23:37:35.167Z,1.20
2022-11-05T23:40:07.381Z,1.52
2022-11-05T23:42:57.665Z,1.02
2022-11-05T23:45:48.187Z,1.10
2022-11-05T23:48:19.716Z,1.10
2022-11-05T23:50:51.614Z,0.93
2022-11-05T23:53:23.095Z,1.35
2022-11-05T23:55:54.899Z,1.05
2022-11-05T23:58:26.392Z,1.42
